« Back
NWS Peachtree City, Ga » Text Product » ATL Terminal Aerodrome Forecast


Printer-friendly Version
Current Version              Previous Versions:   1  2  3  4  5  6  7  8  9  

Terminal Aerodrome Forecast

445
FTUS42 KFFC 200900 AAB
TAFATL
TAF AMD
KATL 200931Z 2010/2112 05012G22KT P6SM SCT035 OVC100
     FM202000 07012KT P6SM SCT060
     FM210000 07008KT P6SM FEW060 SCT250
     FM210600 05004KT P6SM SCT250=



USA.gov is the U.S. government's official web portal to all federal, state and local government web resources and services.